Terminal Aerodrome Forecast
Issued by NWS

Home | Current Version | Previous Version | Text Only | Print | Product List | Glossary On
Versions: 1 2 3 4 5 6 7 8 9 10 11 12 13 14 15 16 17
000
FTUS46 KSEW 010600 AAA
TAFBLI
TAF AMD
KBLI 010613Z 0106/0206 00000KT 3SM BR SCT002 SCT050
      TEMPO 0106/0109 1SM BR BKN002
     FM010900 00000KT 2SM BR BKN004
     FM011800 35004KT P6SM BKN007
     FM012100 31005KT P6SM SCT250=

USA.gov is the U.S. government's official web portal to all federal, state and local government web resources and services.